createdAt,value
2018-08-08T00:00:01.869Z,24.3
2018-08-08T00:05:01.934Z,24.2
2018-08-08T00:10:01.676Z,24.1
2018-08-08T00:15:01.653Z,23.9
2018-08-08T00:20:02.380Z,23.7
2018-08-08T00:25:02.065Z,23.5
2018-08-08T00:30:01.864Z,23.4
2018-08-08T00:35:02.591Z,23.3
2018-08-08T00:40:02.343Z,23.3
2018-08-08T00:45:01.810Z,23.1
2018-08-08T00:50:01.610Z,23
2018-08-08T00:55:02.346Z,23
2018-08-08T01:00:02.159Z,22.9
2018-08-08T01:05:01.386Z,22.7
2018-08-08T01:10:01.451Z,22.6
2018-08-08T01:15:01.635Z,22.5
2018-08-08T01:20:01.946Z,22.5
2018-08-08T01:25:01.979Z,22.4
2018-08-08T01:30:02.225Z,22.3
2018-08-08T01:35:01.324Z,22.2
2018-08-08T01:40:01.253Z,22.2
2018-08-08T01:45:01.949Z,22
2018-08-08T01:50:01.694Z,21.9
2018-08-08T01:55:01.944Z,21.9
2018-08-08T02:00:01.419Z,21.9
2018-08-08T02:05:02.608Z,21.8
2018-08-08T02:10:01.485Z,21.7
2018-08-08T02:15:01.758Z,21.7
2018-08-08T02:20:02.427Z,21.6
2018-08-08T02:25:02.027Z,21.5
2018-08-08T02:30:01.720Z,21.5
2018-08-08T02:35:02.563Z,21.5
2018-08-08T02:40:01.196Z,21.6
2018-08-08T02:45:01.847Z,21.6
2018-08-08T02:50:01.762Z,21.6
2018-08-08T02:55:01.554Z,21.5
2018-08-08T03:00:01.987Z,21.5
2018-08-08T03:05:01.804Z,21.5
2018-08-08T03:10:02.107Z,21.5
2018-08-08T03:15:01.996Z,21.4
2018-08-08T03:20:01.438Z,21.4
2018-08-08T03:25:01.972Z,21.4
2018-08-08T03:30:01.663Z,21.3
2018-08-08T03:35:01.275Z,21.2
2018-08-08T03:40:01.576Z,21.2
2018-08-08T03:45:02.159Z,21.2
2018-08-08T03:50:01.417Z,21.2
2018-08-08T03:55:01.478Z,21.2
2018-08-08T04:00:01.969Z,21.1
2018-08-08T04:05:02.074Z,21
2018-08-08T04:10:01.861Z,21
2018-08-08T04:15:01.981Z,21.2
2018-08-08T04:20:01.576Z,21.1
2018-08-08T04:25:02.119Z,21.2
2018-08-08T04:30:01.807Z,21.3
2018-08-08T04:35:02.211Z,21.4
2018-08-08T04:40:02.031Z,21.5
2018-08-08T04:45:01.551Z,21.9
2018-08-08T04:50:02.045Z,22.2
2018-08-08T04:55:02.278Z,22.6
2018-08-08T05:00:01.632Z,23.1
2018-08-08T05:05:02.103Z,23.4
2018-08-08T05:10:01.860Z,23.7
2018-08-08T05:15:02.363Z,23.8
2018-08-08T05:20:01.644Z,23.8
2018-08-08T05:25:01.313Z,23.8
2018-08-08T05:30:01.957Z,23.7
2018-08-08T05:35:01.853Z,23.7
2018-08-08T05:40:01.818Z,23.8
2018-08-08T05:45:01.500Z,24
2018-08-08T05:50:02.148Z,24.2
2018-08-08T05:55:01.730Z,24.3
2018-08-08T06:00:02.174Z,24.5
2018-08-08T06:05:01.157Z,24.6
2018-08-08T06:10:02.331Z,24.7
2018-08-08T06:15:01.638Z,24.8
2018-08-08T06:20:02.190Z,25
2018-08-08T06:25:01.324Z,25.2
2018-08-08T06:30:02.360Z,25.5
2018-08-08T06:35:01.936Z,25.6
2018-08-08T06:40:01.913Z,25.7
2018-08-08T06:45:02.073Z,25.8
2018-08-08T06:50:02.075Z,25.9
2018-08-08T06:55:01.968Z,26
2018-08-08T07:00:01.538Z,26.3
2018-08-08T07:05:02.288Z,26.5
2018-08-08T07:10:01.881Z,26.6
2018-08-08T07:15:01.781Z,26.7
2018-08-08T07:20:01.301Z,26.8
2018-08-08T07:25:02.076Z,26.8
2018-08-08T07:30:01.579Z,27
2018-08-08T07:35:01.444Z,27.1
2018-08-08T07:40:01.525Z,27.4
2018-08-08T07:45:01.843Z,27.6
2018-08-08T07:50:02.220Z,27.8
2018-08-08T07:55:01.762Z,28
2018-08-08T08:00:01.409Z,28.3
2018-08-08T08:05:02.171Z,28.4
2018-08-08T08:10:01.301Z,28.5
2018-08-08T08:15:01.903Z,28.8
2018-08-08T08:20:01.946Z,29.1
2018-08-08T08:25:01.992Z,29.5
2018-08-08T08:30:01.802Z,29.7
2018-08-08T08:35:01.526Z,29.8
2018-08-08T08:40:01.562Z,29.8
2018-08-08T08:45:01.952Z,29.8
2018-08-08T08:50:01.539Z,29.9
2018-08-08T08:55:01.736Z,30.1
2018-08-08T09:00:01.708Z,30.5
2018-08-08T09:05:01.804Z,30.5
2018-08-08T09:10:01.852Z,30.4
2018-08-08T09:15:01.679Z,30.8
2018-08-08T09:20:01.697Z,31.2
2018-08-08T09:25:01.298Z,31.4
2018-08-08T09:30:02.282Z,31.9
2018-08-08T09:35:02.191Z,32.5
2018-08-08T09:40:01.191Z,32.6
2018-08-08T09:45:01.691Z,32.4
2018-08-08T09:50:01.492Z,32.4
2018-08-08T09:55:01.647Z,32.3
2018-08-08T10:00:02.253Z,32.1
2018-08-08T10:05:01.160Z,31.9
2018-08-08T10:10:01.798Z,31.8
2018-08-08T10:15:01.847Z,32.6
2018-08-08T10:20:01.781Z,33.2
2018-08-08T10:25:02.574Z,33.8
2018-08-08T10:30:01.947Z,34.1
2018-08-08T10:35:01.798Z,34.3
2018-08-08T10:40:02.023Z,34.3
2018-08-08T10:45:01.755Z,33.9
2018-08-08T10:50:01.925Z,33.4
2018-08-08T10:55:01.343Z,33.5
2018-08-08T11:00:02.310Z,33.8
2018-08-08T11:05:01.819Z,33.9
2018-08-08T11:10:02.130Z,33.7
2018-08-08T11:15:01.782Z,33.8
2018-08-08T11:20:02.125Z,33.8
2018-08-08T11:25:01.817Z,33.8
2018-08-08T11:30:01.682Z,34.2
2018-08-08T11:35:02.324Z,34.4
2018-08-08T11:40:01.724Z,34.9
2018-08-08T11:45:02.004Z,35.5
2018-08-08T11:50:01.928Z,36
2018-08-08T11:55:01.919Z,36.5
2018-08-08T12:00:01.405Z,36.9
2018-08-08T12:05:02.076Z,37.4
2018-08-08T12:10:01.480Z,37.3
2018-08-08T12:15:01.502Z,37.9
2018-08-08T12:20:01.385Z,37.8
2018-08-08T12:25:02.116Z,37.7
2018-08-08T12:30:01.622Z,37.4
2018-08-08T12:35:02.089Z,36.9
2018-08-08T12:40:02.447Z,36.6
2018-08-08T12:45:02.315Z,35.9
2018-08-08T12:50:01.304Z,35.7
2018-08-08T12:55:01.327Z,35.9
2018-08-08T13:00:02.211Z,36.1
2018-08-08T13:05:01.674Z,36.1
2018-08-08T13:10:01.905Z,36.1
2018-08-08T13:15:01.533Z,34.8
2018-08-08T13:20:02.116Z,34.2
2018-08-08T13:25:01.960Z,34.2
2018-08-08T13:30:01.763Z,34.3
2018-08-08T13:35:02.663Z,34.2
2018-08-08T13:40:02.032Z,34
2018-08-08T13:45:01.465Z,33.9
2018-08-08T13:50:02.092Z,33.7
2018-08-08T13:55:02.620Z,33.6
2018-08-08T14:00:02.017Z,34.2
2018-08-08T14:05:01.845Z,34.2
2018-08-08T14:10:02.072Z,34.4
2018-08-08T14:15:01.588Z,34
2018-08-08T14:20:01.693Z,34
2018-08-08T14:25:01.556Z,34
2018-08-08T14:30:01.571Z,34.3
2018-08-08T14:35:02.129Z,34.7
2018-08-08T14:40:01.953Z,34.7
2018-08-08T14:45:02.080Z,34
2018-08-08T14:50:01.447Z,34.2
2018-08-08T14:55:01.319Z,34.2
2018-08-08T15:00:01.666Z,33.4
2018-08-08T15:05:02.161Z,33.1
2018-08-08T15:10:01.542Z,32.7
2018-08-08T15:15:02.020Z,32.4
2018-08-08T15:20:01.270Z,32
2018-08-08T15:25:01.239Z,31.8
2018-08-08T15:30:01.833Z,31.7
2018-08-08T15:35:02.143Z,31.6
2018-08-08T15:40:01.949Z,31.6
2018-08-08T15:45:02.282Z,31.5
2018-08-08T15:50:01.368Z,31.7
2018-08-08T15:55:01.425Z,31.9
2018-08-08T16:00:01.524Z,31.9
2018-08-08T16:05:02.227Z,31.8
2018-08-08T16:10:02.181Z,31.9
2018-08-08T16:15:01.519Z,32
2018-08-08T16:20:01.837Z,31.7
2018-08-08T16:25:01.711Z,31.3
2018-08-08T16:30:02.171Z,31
2018-08-08T16:35:01.728Z,30.6
2018-08-08T16:40:02.381Z,30.4
2018-08-08T16:45:01.584Z,30.3
2018-08-08T16:50:01.684Z,30.2
2018-08-08T16:55:02.315Z,30
2018-08-08T17:00:01.333Z,30
2018-08-08T17:05:01.770Z,29.9
2018-08-08T17:10:02.366Z,29.9
2018-08-08T17:15:01.195Z,29.7
2018-08-08T17:20:01.692Z,29.6
2018-08-08T17:25:02.628Z,29.5
2018-08-08T17:30:01.371Z,29.3
2018-08-08T17:35:01.731Z,28.2
2018-08-08T17:40:02.489Z,28
2018-08-08T17:45:02.017Z,27.6
2018-08-08T17:50:01.250Z,27.3
2018-08-08T17:55:01.256Z,26.9
2018-08-08T18:00:01.775Z,26.8
2018-08-08T18:10:02.012Z,26.6
2018-08-08T18:15:02.243Z,26.1
2018-08-08T18:20:02.827Z,25.9
2018-08-08T18:25:01.822Z,25.6
2018-08-08T18:30:01.393Z,25.5
2018-08-08T18:35:01.476Z,25.3
2018-08-08T18:40:01.927Z,25.1
2018-08-08T18:45:01.517Z,25
2018-08-08T18:50:02.051Z,25
2018-08-08T18:55:01.745Z,24.8
2018-08-08T19:00:01.190Z,24.7
2018-08-08T19:05:02.371Z,24.5
2018-08-08T19:10:01.389Z,24.4
2018-08-08T19:15:01.492Z,24.3
2018-08-08T19:20:02.043Z,24.3
2018-08-08T19:25:02.775Z,24.1
2018-08-08T19:30:01.969Z,24
2018-08-08T19:35:01.424Z,23.9
2018-08-08T19:40:02.544Z,23.8
2018-08-08T19:45:01.638Z,23.7
2018-08-08T19:50:01.427Z,23.5
2018-08-08T19:55:02.546Z,23.4
2018-08-08T20:00:01.707Z,23.3
2018-08-08T20:05:01.344Z,23.1
2018-08-08T20:10:01.963Z,23.1
2018-08-08T20:15:01.919Z,23.1
2018-08-08T20:20:01.628Z,23
2018-08-08T20:25:01.410Z,22.9
2018-08-08T20:30:02.226Z,22.8
2018-08-08T20:35:02.032Z,22.7
2018-08-08T20:40:01.656Z,22.5
2018-08-08T20:45:01.960Z,22.5
2018-08-08T20:50:02.300Z,22.4
2018-08-08T20:55:01.989Z,22.3
2018-08-08T21:00:01.251Z,22.3
2018-08-08T21:05:01.697Z,22.2
2018-08-08T21:10:02.250Z,22.2
2018-08-08T21:15:01.493Z,22.1
2018-08-08T21:20:01.788Z,22
2018-08-08T21:25:01.527Z,22
2018-08-08T21:30:02.524Z,21.9
2018-08-08T21:35:01.663Z,21.8
2018-08-08T21:40:01.737Z,21.8
2018-08-08T21:45:01.368Z,21.7
2018-08-08T21:50:02.189Z,21.7
2018-08-08T21:55:01.154Z,21.7
2018-08-08T22:00:01.777Z,21.6
2018-08-08T22:05:02.050Z,21.5
2018-08-08T22:10:02.162Z,21.4
2018-08-08T22:15:01.448Z,21.3
2018-08-08T22:20:02.132Z,21.3
2018-08-08T22:25:02.010Z,21.2
2018-08-08T22:30:02.230Z,21.2
2018-08-08T22:35:01.823Z,21.1
2018-08-08T22:40:01.240Z,21.1
2018-08-08T22:45:01.901Z,21.1
2018-08-08T22:50:01.993Z,21
2018-08-08T22:55:02.285Z,20.9
2018-08-08T23:00:02.023Z,20.8
2018-08-08T23:05:01.681Z,20.7
2018-08-08T23:10:01.812Z,20.6
2018-08-08T23:15:01.221Z,20.6
2018-08-08T23:20:02.334Z,20.5
2018-08-08T23:25:01.317Z,20.5
2018-08-08T23:30:01.879Z,20.4
2018-08-08T23:35:01.867Z,20.4
2018-08-08T23:40:01.426Z,20.4
2018-08-08T23:45:01.512Z,20.3
2018-08-08T23:50:01.821Z,20.2
2018-08-08T23:55:02.208Z,20.2
